createdAt,value
2023-11-15T00:01:38.968Z,11.85
2023-11-15T00:04:09.171Z,11.87
2023-11-15T00:06:37.200Z,11.92
2023-11-15T00:09:07.320Z,11.86
2023-11-15T00:11:37.241Z,12.00
2023-11-15T00:14:05.592Z,12.06
2023-11-15T00:16:33.619Z,12.12
2023-11-15T00:19:04.559Z,12.19
2023-11-15T00:21:32.493Z,12.25
2023-11-15T00:24:00.305Z,12.22
2023-11-15T00:26:30.383Z,12.11
2023-11-15T00:28:59.718Z,12.16
2023-11-15T00:31:27.832Z,12.11
2023-11-15T00:33:55.788Z,12.07
2023-11-15T00:36:25.132Z,11.97
2023-11-15T00:38:53.727Z,11.97
2023-11-15T00:41:21.833Z,11.89
2023-11-15T00:43:49.944Z,11.93
2023-11-15T00:46:18.008Z,12.00
2023-11-15T00:48:45.966Z,12.02
2023-11-15T00:51:13.867Z,12.08
2023-11-15T00:53:43.663Z,11.83
2023-11-15T00:56:12.527Z,11.91
2023-11-15T00:58:42.593Z,12.00
2023-11-15T01:01:12.411Z,12.07
2023-11-15T01:03:46.442Z,12.09
2023-11-15T01:06:16.190Z,12.10
2023-11-15T01:08:45.519Z,12.10
2023-11-15T01:11:13.503Z,12.08
2023-11-15T01:13:41.598Z,12.02
2023-11-15T01:16:10.113Z,11.93
2023-11-15T01:18:38.074Z,12.03
2023-11-15T01:21:06.826Z,12.03
2023-11-15T01:23:34.967Z,12.01
2023-11-15T01:26:04.671Z,11.98
2023-11-15T01:28:32.727Z,12.03
2023-11-15T01:31:00.546Z,12.11
2023-11-15T01:33:28.562Z,12.10
2023-11-15T01:35:56.624Z,12.10
2023-11-15T01:38:25.011Z,12.11
2023-11-15T01:40:53.186Z,12.03
2023-11-15T01:43:23.543Z,12.09
2023-11-15T01:45:52.176Z,12.08
2023-11-15T01:48:20.458Z,12.03
2023-11-15T01:50:49.196Z,12.05
2023-11-15T01:53:18.220Z,12.10
2023-11-15T01:55:47.688Z,12.09
2023-11-15T01:58:16.264Z,12.08
2023-11-15T02:00:46.397Z,12.09
2023-11-15T02:03:15.340Z,12.07
2023-11-15T02:05:43.545Z,12.11
2023-11-15T02:08:11.549Z,12.11
2023-11-15T02:10:39.730Z,12.09
2023-11-15T02:13:22.050Z,12.17
2023-11-15T02:15:53.519Z,12.10
2023-11-15T02:18:23.068Z,12.13
2023-11-15T02:20:52.066Z,12.10
2023-11-15T02:23:22.761Z,12.10
2023-11-15T02:25:53.471Z,12.14
2023-11-15T02:28:21.375Z,12.15
2023-11-15T02:30:49.252Z,12.17
2023-11-15T02:33:17.448Z,12.19
2023-11-15T02:35:45.563Z,12.19
2023-11-15T02:38:13.424Z,12.21
2023-11-15T02:40:45.279Z,12.06
2023-11-15T02:43:15.190Z,12.17
2023-11-15T02:45:43.725Z,12.09
2023-11-15T02:48:11.913Z,12.09
2023-11-15T02:50:40.131Z,12.03
2023-11-15T02:53:08.048Z,12.02
2023-11-15T02:55:35.913Z,12.03
2023-11-15T02:58:04.869Z,12.02
2023-11-15T03:00:34.238Z,11.97
2023-11-15T03:03:02.252Z,11.82
2023-11-15T03:05:30.472Z,11.91
2023-11-15T03:07:57.608Z,11.86
2023-11-15T03:10:25.688Z,11.94
2023-11-15T03:12:53.907Z,11.95
2023-11-15T03:15:22.150Z,11.99
2023-11-15T03:17:51.587Z,11.86
2023-11-15T03:20:19.716Z,11.89
2023-11-15T03:22:49.161Z,11.91
2023-11-15T03:25:17.941Z,11.98
2023-11-15T03:27:46.169Z,12.03
2023-11-15T03:30:16.724Z,12.12
2023-11-15T03:32:45.310Z,12.14
2023-11-15T03:35:14.931Z,12.20
2023-11-15T03:37:43.280Z,12.19
2023-11-15T03:40:12.426Z,12.08
2023-11-15T03:42:40.432Z,12.10
2023-11-15T03:45:10.641Z,12.01
2023-11-15T03:47:38.984Z,11.96
2023-11-15T03:50:09.614Z,11.83
2023-11-15T03:52:39.421Z,11.89
2023-11-15T03:55:07.927Z,11.92
2023-11-15T03:57:35.822Z,11.90
2023-11-15T04:00:07.343Z,11.98
2023-11-15T04:02:41.360Z,12.02
2023-11-15T04:05:11.593Z,11.97
2023-11-15T04:07:43.108Z,11.99
2023-11-15T04:10:12.345Z,12.01
2023-11-15T04:12:40.448Z,11.93
2023-11-15T04:15:10.601Z,11.84
2023-11-15T04:17:39.112Z,11.77
2023-11-15T04:20:09.434Z,11.79
2023-11-15T04:22:37.427Z,11.82
2023-11-15T04:25:07.834Z,11.76
2023-11-15T04:27:35.737Z,11.77
2023-11-15T04:30:03.902Z,11.86
2023-11-15T04:32:31.836Z,11.89
2023-11-15T04:34:59.678Z,11.93
2023-11-15T04:37:27.560Z,11.98
2023-11-15T04:39:55.470Z,12.01
2023-11-15T04:42:25.870Z,12.04
2023-11-15T04:44:53.921Z,12.09
2023-11-15T04:47:22.197Z,12.11
2023-11-15T04:49:50.306Z,12.11
2023-11-15T04:52:18.179Z,12.11
2023-11-15T04:54:46.089Z,12.12
2023-11-15T04:57:14.128Z,12.11
2023-11-15T04:59:43.343Z,12.10
2023-11-15T05:02:11.722Z,12.13
2023-11-15T05:04:40.325Z,12.14
2023-11-15T05:07:08.498Z,12.12
2023-11-15T05:09:36.510Z,12.11
2023-11-15T05:12:04.767Z,12.11
2023-11-15T05:14:32.649Z,12.10
2023-11-15T05:17:01.983Z,12.10
2023-11-15T05:19:30.153Z,12.05
2023-11-15T05:21:58.042Z,12.06
2023-11-15T05:24:26.598Z,12.03
2023-11-15T05:26:56.193Z,12.02
2023-11-15T05:29:24.387Z,12.01
2023-11-15T05:31:52.437Z,12.00
2023-11-15T05:34:21.817Z,11.99
2023-11-15T05:36:49.946Z,12.02
2023-11-15T05:39:18.785Z,12.04
2023-11-15T05:41:46.896Z,12.04
2023-11-15T05:44:14.958Z,12.07
2023-11-15T05:46:43.037Z,12.03
2023-11-15T05:49:11.763Z,12.01
2023-11-15T05:51:43.113Z,12.07
2023-11-15T05:54:11.593Z,12.10
2023-11-15T05:56:39.699Z,12.10
2023-11-15T05:59:08.191Z,12.07
2023-11-15T06:01:39.471Z,12.03
2023-11-15T06:04:08.801Z,12.06
2023-11-15T06:06:36.792Z,12.05
2023-11-15T06:09:06.656Z,11.96
2023-11-15T06:11:34.786Z,12.00
2023-11-15T06:14:02.727Z,11.93
2023-11-15T06:16:30.689Z,11.98
2023-11-15T06:18:59.185Z,11.95
2023-11-15T06:21:28.036Z,11.95
2023-11-15T06:23:56.573Z,11.74
2023-11-15T06:26:25.835Z,11.83
2023-11-15T06:28:55.791Z,11.82
2023-11-15T06:31:27.180Z,11.84
2023-11-15T06:33:55.514Z,11.87
2023-11-15T06:36:23.800Z,11.82
2023-11-15T06:38:51.916Z,11.79
2023-11-15T06:41:20.225Z,11.83
2023-11-15T06:43:49.667Z,11.86
2023-11-15T06:46:20.400Z,11.95
2023-11-15T06:48:49.454Z,11.92
2023-11-15T06:51:17.414Z,11.91
2023-11-15T06:53:47.064Z,11.95
2023-11-15T06:56:15.126Z,11.98
2023-11-15T06:58:43.263Z,12.00
2023-11-15T07:01:13.604Z,11.99
2023-11-15T07:03:44.724Z,12.04
2023-11-15T07:06:14.755Z,12.05
2023-11-15T07:08:42.864Z,12.03
2023-11-15T07:11:10.948Z,12.07
2023-11-15T07:13:39.008Z,11.90
2023-11-15T07:16:10.082Z,11.90
2023-11-15T07:18:39.871Z,11.92
2023-11-15T07:21:08.702Z,11.95
2023-11-15T07:23:37.058Z,11.94
2023-11-15T07:26:05.555Z,11.97
2023-11-15T07:28:33.475Z,12.01
2023-11-15T07:31:01.418Z,12.07
2023-11-15T07:33:29.564Z,12.11
2023-11-15T07:35:58.869Z,12.10
2023-11-15T07:38:27.791Z,12.05
2023-11-15T07:40:55.817Z,11.95
2023-11-15T07:43:24.092Z,11.90
2023-11-15T07:45:55.040Z,11.77
2023-11-15T07:48:23.918Z,11.80
2023-11-15T07:50:52.756Z,11.73
2023-11-15T07:53:23.198Z,11.72
2023-11-15T07:55:51.274Z,11.75
2023-11-15T07:58:20.024Z,11.59
2023-11-15T08:00:48.026Z,11.72
2023-11-15T08:03:17.174Z,11.68
2023-11-15T08:05:45.451Z,11.56
2023-11-15T08:08:14.723Z,11.65
2023-11-15T08:10:48.305Z,11.49
2023-11-15T08:13:18.097Z,11.79
2023-11-15T08:15:46.086Z,11.65
2023-11-15T08:18:14.149Z,11.64
2023-11-15T08:20:43.394Z,11.52
2023-11-15T08:23:13.019Z,11.54
2023-11-15T08:25:42.217Z,11.53
2023-11-15T08:28:11.488Z,11.52
2023-11-15T08:30:40.567Z,11.48
2023-11-15T08:33:08.534Z,11.54
2023-11-15T08:35:36.890Z,11.54
2023-11-15T08:38:05.737Z,11.56
2023-11-15T08:40:35.028Z,11.57
2023-11-15T08:43:03.832Z,11.44
2023-11-15T08:45:33.115Z,11.53
2023-11-15T08:48:02.135Z,11.57
2023-11-15T08:50:30.337Z,11.56
2023-11-15T08:52:58.974Z,11.67
2023-11-15T08:55:27.431Z,11.69
2023-11-15T08:57:57.437Z,11.71
2023-11-15T09:00:25.734Z,11.77
2023-11-15T09:02:55.262Z,11.70
2023-11-15T09:05:24.340Z,11.61
2023-11-15T09:07:52.517Z,11.71
2023-11-15T09:10:23.909Z,11.70
2023-11-15T09:12:53.725Z,11.65
2023-11-15T09:15:22.449Z,11.65
2023-11-15T09:17:51.880Z,11.67
2023-11-15T09:20:27.598Z,11.69
2023-11-15T09:22:56.040Z,11.75
2023-11-15T09:25:25.504Z,11.78
2023-11-15T09:27:55.533Z,11.74
2023-11-15T09:30:26.193Z,11.80
2023-11-15T09:32:56.030Z,11.83
2023-11-15T09:35:29.402Z,11.93
2023-11-15T09:37:58.772Z,11.85
2023-11-15T09:40:28.700Z,11.99
2023-11-15T09:43:00.954Z,12.03
2023-11-15T09:45:28.974Z,12.04
2023-11-15T09:47:59.628Z,12.03
2023-11-15T09:50:34.687Z,12.02
2023-11-15T09:53:06.894Z,12.00
2023-11-15T09:55:36.082Z,11.84
2023-11-15T09:58:05.062Z,11.97
2023-11-15T10:00:33.795Z,11.99
2023-11-15T10:03:02.645Z,11.72
2023-11-15T10:05:33.451Z,11.86
2023-11-15T10:08:12.373Z,11.96
2023-11-15T10:10:43.218Z,11.75
2023-11-15T10:13:15.256Z,11.73
2023-11-15T10:15:45.181Z,11.58
2023-11-15T10:18:15.551Z,11.76
2023-11-15T10:20:45.192Z,11.69
2023-11-15T10:23:14.588Z,11.67
2023-11-15T10:25:52.138Z,11.87
2023-11-15T10:28:22.391Z,11.91
2023-11-15T10:31:02.722Z,11.94
2023-11-15T10:33:33.299Z,11.99
2023-11-15T10:36:19.349Z,12.01
2023-11-15T10:38:51.478Z,12.04
2023-11-15T10:41:21.530Z,12.04
2023-11-15T10:43:51.030Z,12.09
2023-11-15T10:46:21.226Z,11.88
2023-11-15T10:48:50.929Z,11.79
2023-11-15T10:51:25.064Z,11.87
2023-11-15T10:53:53.870Z,11.85
2023-11-15T10:56:23.408Z,11.73
2023-11-15T10:58:54.464Z,11.80
2023-11-15T11:01:24.265Z,11.72
2023-11-15T11:03:56.473Z,11.77
2023-11-15T11:06:29.884Z,11.69
2023-11-15T11:09:11.481Z,11.43
2023-11-15T11:11:47.046Z,11.34
2023-11-15T11:14:22.342Z,11.39
2023-11-15T11:16:51.246Z,11.47
2023-11-15T11:19:23.474Z,11.46
2023-11-15T11:22:13.351Z,11.43
2023-11-15T11:24:44.184Z,11.33
2023-11-15T11:27:32.361Z,11.42
2023-11-15T11:30:22.153Z,11.56
2023-11-15T11:32:52.024Z,11.59
2023-11-15T11:35:32.472Z,11.56
2023-11-15T11:38:02.195Z,11.54
2023-11-15T11:40:33.440Z,11.66
2023-11-15T11:43:17.026Z,11.72
2023-11-15T11:45:46.648Z,11.59
2023-11-15T11:48:19.379Z,11.80
2023-11-15T11:51:00.357Z,11.69
2023-11-15T11:53:29.804Z,11.47
2023-11-15T11:55:58.618Z,11.54
2023-11-15T11:58:28.872Z,11.54
2023-11-15T12:01:04.796Z,11.65
2023-11-15T12:03:34.887Z,11.51
2023-11-15T12:06:11.055Z,11.77
2023-11-15T12:08:42.027Z,11.70
2023-11-15T12:11:11.735Z,11.63
2023-11-15T12:13:48.332Z,11.70
2023-11-15T12:16:18.224Z,11.47
2023-11-15T12:18:59.172Z,11.63
2023-11-15T12:21:27.693Z,11.58
2023-11-15T12:23:57.118Z,11.58
2023-11-15T12:26:26.009Z,11.68
2023-11-15T12:28:53.873Z,11.77
2023-11-15T12:31:21.751Z,11.87
2023-11-15T12:33:50.797Z,11.96
2023-11-15T12:36:20.395Z,12.01
2023-11-15T12:38:57.188Z,12.08
2023-11-15T12:41:25.464Z,12.01
2023-11-15T12:44:03.902Z,11.97
2023-11-15T12:46:31.993Z,11.95
2023-11-15T12:49:00.340Z,11.92
2023-11-15T12:51:28.509Z,11.86
2023-11-15T12:54:00.391Z,11.98
2023-11-15T12:56:28.389Z,11.91
2023-11-15T12:58:56.802Z,11.86
2023-11-15T13:01:25.282Z,11.83
2023-11-15T13:03:58.233Z,11.94
2023-11-15T13:06:30.595Z,11.99
2023-11-15T13:09:03.098Z,12.14
2023-11-15T13:11:31.385Z,12.03
2023-11-15T13:13:59.354Z,12.32
2023-11-15T13:16:27.382Z,12.55
2023-11-15T13:18:55.950Z,12.77
2023-11-15T13:21:24.686Z,12.72
2023-11-15T13:23:54.107Z,12.70
2023-11-15T13:26:25.804Z,12.96
2023-11-15T13:28:54.156Z,13.12
2023-11-15T13:31:26.211Z,12.85
2023-11-15T13:33:57.045Z,12.98
2023-11-15T13:36:26.541Z,12.62
2023-11-15T13:38:54.987Z,12.68
2023-11-15T13:41:25.046Z,12.84
2023-11-15T13:43:54.450Z,12.79
2023-11-15T13:46:24.375Z,12.71
2023-11-15T13:48:53.803Z,12.65
2023-11-15T13:51:23.121Z,12.53
2023-11-15T13:53:51.410Z,12.67
2023-11-15T13:56:20.930Z,12.69
2023-11-15T13:58:50.653Z,12.69
2023-11-15T14:01:18.579Z,12.82
2023-11-15T14:03:46.579Z,12.65
2023-11-15T14:06:14.543Z,12.76
2023-11-15T14:08:51.685Z,12.62
2023-11-15T14:11:26.398Z,12.88
2023-11-15T14:13:55.777Z,12.48
2023-11-15T14:16:24.316Z,12.56
2023-11-15T14:18:52.578Z,12.61
2023-11-15T14:21:21.212Z,12.44
2023-11-15T14:23:49.612Z,12.41
2023-11-15T14:26:17.735Z,12.54
2023-11-15T14:28:46.325Z,12.74
2023-11-15T14:31:15.522Z,12.64
2023-11-15T14:33:43.697Z,12.61
2023-11-15T14:36:12.301Z,12.61
2023-11-15T14:38:40.143Z,12.66
2023-11-15T14:41:08.582Z,12.72
2023-11-15T14:43:36.604Z,12.48
2023-11-15T14:46:05.001Z,12.28
2023-11-15T14:48:34.934Z,12.37
2023-11-15T14:51:03.630Z,12.31
2023-11-15T14:53:37.773Z,12.19
2023-11-15T14:56:06.669Z,12.18
2023-11-15T14:58:36.485Z,12.21
2023-11-15T15:01:05.191Z,12.08
2023-11-15T15:03:35.057Z,12.22
2023-11-15T15:06:03.146Z,12.12
2023-11-15T15:08:31.404Z,12.19
2023-11-15T15:10:59.703Z,12.25
2023-11-15T15:13:27.654Z,12.16
2023-11-15T15:15:56.258Z,12.23
2023-11-15T15:18:29.980Z,12.03
2023-11-15T15:21:05.123Z,12.18
2023-11-15T15:23:34.121Z,12.25
2023-11-15T15:26:04.008Z,12.15
2023-11-15T15:28:31.843Z,12.09
2023-11-15T15:30:59.872Z,11.89
2023-11-15T15:33:27.584Z,11.92
2023-11-15T15:35:56.500Z,11.95
2023-11-15T15:38:26.925Z,11.88
2023-11-15T15:40:55.071Z,11.92
2023-11-15T15:43:23.062Z,11.88
2023-11-15T15:45:51.047Z,11.96
2023-11-15T15:48:19.085Z,11.66
2023-11-15T15:50:48.444Z,11.75
2023-11-15T15:53:16.509Z,11.82
2023-11-15T15:55:45.957Z,11.76
2023-11-15T15:58:13.876Z,11.73
2023-11-15T16:00:41.817Z,11.62
2023-11-15T16:03:10.285Z,11.39
2023-11-15T16:05:38.177Z,11.45
2023-11-15T16:08:06.118Z,11.61
2023-11-15T16:10:33.879Z,11.73
2023-11-15T16:13:04.226Z,11.58
2023-11-15T16:15:32.328Z,11.71
2023-11-15T16:18:00.296Z,11.54
2023-11-15T16:20:28.362Z,11.36
2023-11-15T16:22:57.751Z,11.56
2023-11-15T16:25:26.078Z,11.58
2023-11-15T16:27:54.065Z,11.58
2023-11-15T16:30:24.870Z,11.69
2023-11-15T16:32:54.156Z,11.64
2023-11-15T16:35:22.054Z,11.58
2023-11-15T16:37:50.610Z,11.42
2023-11-15T16:40:18.563Z,11.43
2023-11-15T16:42:46.423Z,11.38
2023-11-15T16:45:14.589Z,11.45
2023-11-15T16:47:43.851Z,11.48
2023-11-15T16:50:11.767Z,11.49
2023-11-15T16:52:40.404Z,11.55
2023-11-15T16:55:13.874Z,11.27
2023-11-15T16:57:41.613Z,11.32
2023-11-15T17:00:10.730Z,11.08
2023-11-15T17:02:38.884Z,11.14
2023-11-15T17:05:08.568Z,11.17
2023-11-15T17:07:36.423Z,11.12
2023-11-15T17:10:04.668Z,11.23
2023-11-15T17:12:32.649Z,11.25
2023-11-15T17:15:00.877Z,11.32
2023-11-15T17:17:29.888Z,11.16
2023-11-15T17:19:58.481Z,11.25
2023-11-15T17:22:27.959Z,11.33
2023-11-15T17:24:55.772Z,11.27
2023-11-15T17:27:25.167Z,11.30
2023-11-15T17:29:53.553Z,11.23
2023-11-15T17:32:21.736Z,11.11
2023-11-15T17:34:50.127Z,11.23
2023-11-15T17:37:17.926Z,11.36
2023-11-15T17:39:47.180Z,11.24
2023-11-15T17:42:15.307Z,11.34
2023-11-15T17:44:43.279Z,11.27
2023-11-15T17:47:13.116Z,11.31
2023-11-15T17:49:42.935Z,11.24
2023-11-15T17:52:11.188Z,11.23
2023-11-15T17:54:39.408Z,11.23
2023-11-15T17:57:09.737Z,11.30
2023-11-15T17:59:37.887Z,11.24
2023-11-15T18:02:06.045Z,11.19
2023-11-15T18:04:34.041Z,11.15
2023-11-15T18:07:02.196Z,11.24
2023-11-15T18:09:30.581Z,11.41
2023-11-15T18:11:58.582Z,11.09
2023-11-15T18:14:28.214Z,11.04
2023-11-15T18:16:56.853Z,10.93
2023-11-15T18:19:24.895Z,11.16
2023-11-15T18:21:53.037Z,11.31
2023-11-15T18:24:21.112Z,11.21
2023-11-15T18:26:49.139Z,11.08
2023-11-15T18:29:17.088Z,11.03
2023-11-15T18:31:46.370Z,11.05
2023-11-15T18:34:14.728Z,11.13
2023-11-15T18:36:44.745Z,11.14
2023-11-15T18:39:15.586Z,11.16
2023-11-15T18:41:44.574Z,11.23
2023-11-15T18:44:17.092Z,11.06
2023-11-15T18:46:49.644Z,11.00
2023-11-15T18:49:18.642Z,11.05
2023-11-15T18:51:46.741Z,10.97
2023-11-15T18:54:15.132Z,11.10
2023-11-15T18:56:43.298Z,11.02
2023-11-15T18:59:11.264Z,11.13
2023-11-15T19:01:39.321Z,10.92
2023-11-15T19:04:09.129Z,11.10
2023-11-15T19:06:37.731Z,11.06
2023-11-15T19:09:06.710Z,11.06
2023-11-15T19:11:34.561Z,11.06
2023-11-15T19:14:02.791Z,11.09
2023-11-15T19:16:31.799Z,11.03
2023-11-15T19:18:59.819Z,11.06
2023-11-15T19:21:29.143Z,11.10
2023-11-15T19:23:58.438Z,11.06
2023-11-15T19:26:29.258Z,11.09
2023-11-15T19:28:57.270Z,10.92
2023-11-15T19:31:25.179Z,10.88
2023-11-15T19:33:54.851Z,10.80
2023-11-15T19:36:23.039Z,11.01
2023-11-15T19:38:52.578Z,10.79
2023-11-15T19:41:20.889Z,10.66
2023-11-15T19:43:48.800Z,10.81
2023-11-15T19:46:20.098Z,10.97
2023-11-15T19:48:48.799Z,11.02
2023-11-15T19:51:23.726Z,11.16
2023-11-15T19:54:08.419Z,10.89
2023-11-15T19:56:36.666Z,11.12
2023-11-15T19:59:05.007Z,11.09
2023-11-15T20:01:33.032Z,11.04
2023-11-15T20:04:03.395Z,11.04
2023-11-15T20:06:32.008Z,11.06
2023-11-15T20:09:01.340Z,11.18
2023-11-15T20:11:31.099Z,11.16
2023-11-15T20:13:59.066Z,11.23
2023-11-15T20:16:28.633Z,11.26
2023-11-15T20:18:57.451Z,11.26
2023-11-15T20:21:25.436Z,11.12
2023-11-15T20:23:54.097Z,11.21
2023-11-15T20:26:22.175Z,11.18
2023-11-15T20:28:52.850Z,11.38
2023-11-15T20:35:14.153Z,11.20
2023-11-15T20:37:42.037Z,11.32
2023-11-15T20:40:15.557Z,11.41
2023-11-15T20:42:47.110Z,11.36
2023-11-15T20:45:17.014Z,11.39
2023-11-15T20:47:45.187Z,11.50
2023-11-15T20:50:13.736Z,11.48
2023-11-15T20:52:41.676Z,11.57
2023-11-15T20:55:10.933Z,11.46
2023-11-15T20:57:39.798Z,11.47
2023-11-15T21:00:14.025Z,11.22
2023-11-15T21:02:43.531Z,11.24
2023-11-15T21:05:12.954Z,11.21
2023-11-15T21:07:41.564Z,11.19
2023-11-15T21:10:10.820Z,11.26
2023-11-15T21:12:39.457Z,11.30
2023-11-15T21:15:10.735Z,11.31
2023-11-15T21:17:39.005Z,11.41
2023-11-15T21:20:13.062Z,11.38
2023-11-15T21:22:42.408Z,11.42
2023-11-15T21:25:12.761Z,11.45
2023-11-15T21:27:41.828Z,11.44
2023-11-15T21:30:13.239Z,11.48
2023-11-15T21:32:42.275Z,11.64
2023-11-15T21:35:12.838Z,11.40
2023-11-15T21:37:42.717Z,11.32
2023-11-15T21:40:12.678Z,11.32
2023-11-15T21:42:41.210Z,11.16
2023-11-15T21:45:10.883Z,10.95
2023-11-15T21:47:39.660Z,10.92
2023-11-15T21:50:11.169Z,10.92
2023-11-15T21:52:41.092Z,10.95
2023-11-15T21:55:09.834Z,11.08
2023-11-15T21:57:38.176Z,10.97
2023-11-15T22:00:09.614Z,10.94
2023-11-15T22:02:38.017Z,11.14
2023-11-15T22:05:07.183Z,11.02
2023-11-15T22:07:35.106Z,10.90
2023-11-15T22:10:05.198Z,10.73
2023-11-15T22:12:33.165Z,10.75
2023-11-15T22:15:01.046Z,10.86
2023-11-15T22:17:30.022Z,10.82
2023-11-15T22:19:57.851Z,10.54
2023-11-15T22:22:25.821Z,10.52
2023-11-15T22:24:53.762Z,10.67
2023-11-15T22:27:23.149Z,10.99
2023-11-15T22:29:51.311Z,10.90
2023-11-15T22:32:19.770Z,10.69
2023-11-15T22:34:47.811Z,10.89
2023-11-15T22:37:16.315Z,10.82
2023-11-15T22:39:44.586Z,10.78
2023-11-15T22:42:12.431Z,10.79
2023-11-15T22:44:41.860Z,10.69
2023-11-15T22:54:24.310Z,10.80
2023-11-15T22:56:52.684Z,10.70
2023-11-15T22:59:20.708Z,10.73
2023-11-15T23:01:49.961Z,10.81
2023-11-15T23:04:18.824Z,10.84
2023-11-15T23:06:47.039Z,10.79
2023-11-15T23:09:15.785Z,10.66
2023-11-15T23:11:43.582Z,10.57
2023-11-15T23:14:11.498Z,10.65
2023-11-15T23:16:41.835Z,10.74
2023-11-15T23:19:11.786Z,10.72
2023-11-15T23:21:45.614Z,10.80
2023-11-15T23:24:18.583Z,10.79
2023-11-15T23:26:46.446Z,10.94
2023-11-15T23:29:14.333Z,11.00
2023-11-15T23:31:43.927Z,10.99
2023-11-15T23:34:13.253Z,11.08
2023-11-15T23:36:41.055Z,11.08
2023-11-15T23:39:09.109Z,11.13
2023-11-15T23:41:37.692Z,11.08
2023-11-15T23:44:07.503Z,11.09
2023-11-15T23:46:35.309Z,10.91
2023-11-15T23:49:03.179Z,11.05
2023-11-15T23:51:32.304Z,11.04
2023-11-15T23:54:00.182Z,11.00
2023-11-15T23:56:27.976Z,11.18
2023-11-15T23:58:55.750Z,11.12
